createdAt,value
2018-10-21T00:01:03.470Z,8.58
2018-10-21T00:03:32.851Z,7.80
2018-10-21T00:06:02.327Z,7.40
2018-10-21T00:08:31.765Z,6.83
2018-10-21T00:11:01.683Z,6.05
2018-10-21T00:13:31.324Z,9.38
2018-10-21T00:16:00.747Z,7.25
2018-10-21T00:18:30.109Z,8.33
2018-10-21T00:20:59.546Z,9.13
2018-10-21T00:23:28.896Z,7.20
2018-10-21T00:25:58.290Z,9.45
2018-10-21T00:28:27.866Z,6.70
2018-10-21T00:30:57.440Z,5.97
2018-10-21T00:33:26.796Z,7.97
2018-10-21T00:35:56.258Z,8.50
2018-10-21T00:38:25.651Z,7.87
2018-10-21T00:40:55.176Z,7.95
2018-10-21T00:43:24.507Z,7.97
2018-10-21T00:45:53.881Z,8.50
2018-10-21T00:48:23.345Z,7.65
2018-10-21T00:50:52.901Z,8.28
2018-10-21T00:53:22.279Z,7.08
2018-10-21T00:55:51.612Z,9.68
2018-10-21T00:58:20.932Z,8.45
2018-10-21T01:00:50.316Z,6.58
2018-10-21T01:03:19.714Z,7.05
2018-10-21T01:05:49.153Z,10.32
2018-10-21T01:08:18.587Z,8.00
2018-10-21T01:10:48.060Z,11.30
2018-10-21T01:13:17.441Z,10.13
2018-10-21T01:15:46.862Z,8.68
2018-10-21T01:18:16.255Z,8.50
2018-10-21T01:20:45.686Z,9.25
2018-10-21T01:23:15.295Z,11.57
2018-10-21T01:25:44.806Z,8.23
2018-10-21T01:28:14.216Z,7.00
2018-10-21T01:30:43.555Z,6.87
2018-10-21T01:33:13.031Z,7.97
2018-10-21T01:35:42.515Z,7.42
2018-10-21T01:38:12.130Z,6.50
2018-10-21T01:40:44.489Z,7.40
2018-10-21T01:43:16.685Z,8.28
2018-10-21T01:45:46.219Z,8.68
2018-10-21T01:48:16.837Z,7.15
2018-10-21T01:50:46.343Z,6.50
2018-10-21T01:53:17.309Z,7.17
2018-10-21T01:55:46.769Z,6.75
2018-10-21T01:58:16.295Z,6.90
2018-10-21T02:00:46.116Z,8.05
2018-10-21T02:03:15.852Z,7.83
2018-10-21T02:05:46.256Z,10.08
2018-10-21T02:08:15.735Z,7.17
2018-10-21T02:10:45.164Z,8.08
2018-10-21T02:13:14.635Z,7.12
2018-10-21T02:15:44.080Z,7.70
2018-10-21T02:18:13.535Z,7.25
2018-10-21T02:20:42.984Z,7.10
2018-10-21T02:23:12.400Z,6.75
2018-10-21T02:25:41.926Z,7.95
2018-10-21T02:28:11.403Z,6.28
2018-10-21T02:30:40.871Z,7.90
2018-10-21T02:33:10.264Z,6.92
2018-10-21T02:35:39.644Z,8.10
2018-10-21T02:38:09.081Z,6.00
2018-10-21T02:41:55.524Z,5.33
2018-10-21T02:44:25.346Z,7.83
2018-10-21T02:46:56.149Z,5.87
2018-10-21T02:49:25.706Z,6.17
2018-10-21T02:52:00.443Z,7.42
2018-10-21T02:54:31.058Z,5.92
2018-10-21T02:57:00.568Z,6.00
2018-10-21T02:59:29.963Z,7.67
2018-10-21T03:01:59.356Z,7.67
2018-10-21T03:04:28.753Z,6.20
2018-10-21T03:06:58.209Z,5.92
2018-10-21T03:09:28.318Z,6.97
2018-10-21T03:11:57.908Z,7.60
2018-10-21T03:14:27.416Z,8.73
2018-10-21T03:16:56.925Z,6.05
2018-10-21T03:19:26.448Z,5.65
2018-10-21T03:21:55.900Z,6.03
2018-10-21T03:24:25.417Z,11.90
2018-10-21T03:26:54.900Z,6.33
2018-10-21T03:29:24.445Z,5.95
2018-10-21T03:31:53.885Z,6.72
2018-10-21T03:34:23.374Z,5.30
2018-10-21T03:36:52.836Z,8.53
2018-10-21T03:39:22.190Z,6.83
2018-10-21T03:41:51.713Z,5.85
2018-10-21T03:44:21.104Z,5.50
2018-10-21T03:46:50.441Z,5.75
2018-10-21T03:49:19.836Z,10.78
2018-10-21T03:51:49.323Z,6.58
2018-10-21T03:54:18.801Z,6.75
2018-10-21T03:56:48.232Z,5.80
2018-10-21T03:59:17.650Z,7.03
2018-10-21T04:01:47.078Z,6.35
2018-10-21T04:04:16.494Z,5.65
2018-10-21T04:06:45.920Z,6.25
2018-10-21T04:09:15.453Z,5.55
2018-10-21T04:11:44.879Z,6.33
2018-10-21T04:14:14.221Z,5.30
2018-10-21T04:16:43.550Z,4.67
2018-10-21T04:19:12.906Z,5.50
2018-10-21T04:21:42.294Z,6.58
2018-10-21T04:24:11.742Z,5.80
2018-10-21T04:26:41.233Z,6.10
2018-10-21T04:29:10.618Z,8.33
2018-10-21T04:31:39.958Z,6.70
2018-10-21T04:34:09.567Z,7.08
2018-10-21T04:36:39.056Z,5.92
2018-10-21T04:40:20.489Z,8.25
2018-10-21T04:42:50.657Z,9.25
2018-10-21T04:45:21.402Z,5.65
2018-10-21T04:47:50.882Z,5.53
2018-10-21T04:50:20.858Z,6.53
2018-10-21T04:52:51.148Z,6.78
2018-10-21T04:55:20.743Z,7.47
2018-10-21T04:57:50.130Z,7.47
2018-10-21T05:00:20.501Z,6.22
2018-10-21T05:02:49.873Z,6.92
2018-10-21T05:05:20.191Z,6.55
2018-10-21T05:07:49.512Z,8.38
2018-10-21T05:10:26.554Z,7.15
2018-10-21T05:12:56.049Z,8.25
2018-10-21T05:15:26.554Z,7.42
2018-10-21T05:17:56.696Z,6.67
2018-10-21T05:20:26.181Z,6.15
2018-10-21T05:22:55.884Z,12.73
2018-10-21T05:25:25.831Z,6.15
2018-10-21T05:27:55.231Z,6.55
2018-10-21T05:30:24.810Z,6.30
2018-10-21T05:32:55.229Z,6.00
2018-10-21T05:35:24.629Z,6.05
2018-10-21T05:37:54.224Z,5.95
2018-10-21T05:40:23.921Z,6.22
2018-10-21T05:42:53.668Z,6.17
2018-10-21T05:45:23.256Z,7.53
2018-10-21T05:47:53.601Z,6.75
2018-10-21T05:50:23.065Z,6.10
2018-10-21T05:52:52.752Z,7.25
2018-10-21T05:55:22.493Z,7.37
2018-10-21T05:57:51.996Z,7.92
2018-10-21T06:00:21.794Z,6.42
2018-10-21T06:02:51.551Z,5.45
2018-10-21T06:05:36.160Z,6.15
2018-10-21T06:08:05.920Z,7.42
2018-10-21T06:10:35.254Z,7.10
2018-10-21T06:13:05.013Z,6.33
2018-10-21T06:15:34.353Z,7.30
2018-10-21T06:18:04.904Z,6.95
2018-10-21T06:20:37.018Z,6.20
2018-10-21T06:23:06.647Z,6.10
2018-10-21T06:25:36.102Z,7.87
2018-10-21T06:28:06.569Z,6.17
2018-10-21T06:30:36.063Z,8.20
2018-10-21T06:33:05.733Z,6.50
2018-10-21T06:35:35.202Z,7.30
2018-10-21T06:38:05.017Z,8.33
2018-10-21T06:40:34.507Z,6.70
2018-10-21T06:43:03.950Z,7.53
2018-10-21T06:45:33.527Z,9.60
2018-10-21T06:48:04.035Z,7.70
2018-10-21T06:50:33.488Z,7.75
2018-10-21T06:53:03.291Z,8.50
2018-10-21T06:55:32.849Z,8.10
2018-10-21T06:58:02.209Z,8.35
2018-10-21T07:00:32.304Z,8.35
2018-10-21T07:03:02.912Z,8.25
2018-10-21T07:06:24.594Z,10.95
2018-10-21T07:08:55.310Z,9.33
2018-10-21T07:11:25.138Z,9.13
2018-10-21T07:13:54.621Z,9.70
2018-10-21T07:16:24.595Z,9.78
2018-10-21T07:18:54.414Z,9.03
2018-10-21T07:21:23.952Z,9.13
2018-10-21T07:23:53.734Z,11.28
2018-10-21T07:26:23.605Z,9.10
2018-10-21T07:28:53.148Z,8.50
2018-10-21T07:31:22.733Z,8.93
2018-10-21T07:33:52.409Z,10.25
2018-10-21T07:36:21.955Z,8.65
2018-10-21T07:38:51.300Z,10.48
2018-10-21T07:41:20.832Z,8.48
2018-10-21T07:43:50.498Z,8.70
2018-10-21T07:46:20.820Z,8.78
2018-10-21T07:48:50.492Z,7.95
2018-10-21T07:51:20.113Z,9.68
2018-10-21T07:53:49.963Z,8.68
2018-10-21T07:56:19.402Z,8.73
2018-10-21T07:58:48.919Z,8.15
2018-10-21T08:01:18.593Z,11.95
2018-10-21T08:03:48.052Z,10.00
2018-10-21T08:06:35.814Z,10.20
2018-10-21T08:09:08.411Z,10.35
2018-10-21T08:11:38.017Z,10.82
2018-10-21T08:14:07.498Z,10.82
2018-10-21T08:16:37.844Z,9.65
2018-10-21T08:19:07.425Z,10.23
2018-10-21T08:21:36.844Z,9.63
2018-10-21T08:24:06.523Z,9.35
2018-10-21T08:26:35.974Z,9.35
2018-10-21T08:29:05.689Z,10.03
2018-10-21T08:31:35.058Z,12.30
2018-10-21T08:34:04.709Z,10.30
2018-10-21T08:36:34.219Z,11.83
2018-10-21T08:39:05.598Z,9.08
2018-10-21T08:41:35.325Z,10.25
2018-10-21T08:44:04.787Z,11.78
2018-10-21T08:46:34.739Z,10.90
2018-10-21T08:49:04.237Z,8.85
2018-10-21T08:51:33.632Z,9.45
2018-10-21T08:54:03.263Z,10.08
2018-10-21T08:56:32.745Z,10.80
2018-10-21T08:59:02.249Z,10.35
2018-10-21T09:01:31.770Z,10.75
2018-10-21T09:04:01.288Z,9.18
2018-10-21T09:06:30.657Z,10.38
2018-10-21T09:09:00.037Z,9.98
2018-10-21T09:11:29.483Z,8.48
2018-10-21T09:13:58.869Z,9.90
2018-10-21T09:16:28.891Z,9.30
2018-10-21T09:18:58.443Z,12.88
2018-10-21T09:21:27.874Z,9.65
2018-10-21T09:23:57.230Z,8.78
2018-10-21T09:26:26.621Z,8.95
2018-10-21T09:28:56.083Z,9.50
2018-10-21T09:31:25.529Z,7.95
2018-10-21T09:33:54.944Z,10.48
2018-10-21T09:36:24.727Z,8.85
2018-10-21T09:38:54.298Z,10.43
2018-10-21T09:41:23.858Z,7.80
2018-10-21T09:43:54.520Z,8.85
2018-10-21T09:46:24.285Z,8.58
2018-10-21T09:48:53.753Z,8.93
2018-10-21T09:51:23.247Z,8.00
2018-10-21T09:53:52.925Z,9.88
2018-10-21T09:56:22.467Z,9.88
2018-10-21T09:58:51.992Z,8.65
2018-10-21T10:01:26.680Z,8.13
2018-10-21T10:03:56.268Z,10.75
2018-10-21T10:06:25.618Z,8.83
2018-10-21T10:08:54.945Z,9.63
2018-10-21T10:11:24.664Z,7.97
2018-10-21T10:13:53.995Z,8.25
2018-10-21T10:16:23.383Z,10.08
2018-10-21T10:18:52.853Z,7.83
2018-10-21T10:21:22.284Z,9.05
2018-10-21T10:23:51.852Z,8.33
2018-10-21T10:26:21.297Z,7.83
2018-10-21T10:28:50.747Z,6.72
2018-10-21T10:31:20.613Z,8.65
2018-10-21T10:33:50.045Z,7.35
2018-10-21T10:36:19.728Z,8.28
2018-10-21T10:38:49.479Z,6.58
2018-10-21T10:41:18.862Z,6.25
2018-10-21T10:43:48.357Z,5.92
2018-10-21T10:46:17.782Z,5.83
2018-10-21T10:48:47.200Z,7.05
2018-10-21T10:51:17.296Z,6.25
2018-10-21T10:53:47.014Z,8.15
2018-10-21T10:56:16.398Z,7.50
2018-10-21T10:58:45.944Z,5.62
2018-10-21T11:01:15.534Z,7.12
2018-10-21T11:03:44.980Z,4.65
2018-10-21T11:06:14.462Z,5.55
2018-10-21T11:08:44.053Z,5.40
2018-10-21T11:11:13.574Z,4.83
2018-10-21T11:13:43.015Z,4.40
2018-10-21T11:16:12.587Z,4.40
2018-10-21T11:18:41.997Z,5.85
2018-10-21T11:21:11.434Z,5.08
2018-10-21T11:23:40.936Z,5.85
2018-10-21T11:26:10.356Z,4.90
2018-10-21T11:28:39.828Z,6.70
2018-10-21T11:31:09.394Z,5.10
2018-10-21T11:33:38.792Z,5.78
2018-10-21T11:36:08.371Z,4.28
2018-10-21T11:38:37.708Z,7.95
2018-10-21T11:41:07.848Z,5.37
2018-10-21T11:43:37.322Z,3.05
2018-10-21T11:46:06.927Z,5.05
2018-10-21T11:48:36.243Z,4.65
2018-10-21T11:51:06.125Z,4.35
2018-10-21T11:53:35.542Z,5.62
2018-10-21T11:56:05.401Z,3.83
2018-10-21T11:58:34.862Z,4.72
2018-10-21T12:01:04.378Z,4.58
2018-10-21T12:03:34.274Z,3.62
2018-10-21T12:06:03.698Z,3.20
2018-10-21T12:08:33.225Z,6.05
2018-10-21T12:11:02.653Z,6.10
2018-10-21T12:13:32.027Z,5.30
2018-10-21T12:16:01.487Z,4.83
2018-10-21T12:18:30.826Z,4.03
2018-10-21T12:21:01.393Z,4.12
2018-10-21T12:23:31.976Z,4.80
2018-10-21T12:26:01.553Z,5.00
2018-10-21T12:28:31.161Z,5.80
2018-10-21T12:31:00.548Z,4.05
2018-10-21T12:33:32.395Z,5.37
2018-10-21T12:36:01.946Z,4.12
2018-10-21T12:38:31.429Z,5.78
2018-10-21T12:41:00.928Z,3.10
2018-10-21T12:43:30.536Z,3.95
2018-10-21T12:45:59.919Z,5.08
2018-10-21T12:48:29.426Z,3.77
2018-10-21T12:50:58.969Z,3.60
2018-10-21T12:53:28.378Z,2.47
2018-10-21T12:55:57.993Z,3.77
2018-10-21T12:58:27.403Z,4.17
2018-10-21T13:00:56.910Z,5.22
2018-10-21T13:03:26.321Z,2.72
2018-10-21T13:05:55.708Z,4.53
2018-10-21T13:08:25.217Z,4.45
2018-10-21T13:10:54.728Z,3.33
2018-10-21T13:13:24.269Z,3.65
2018-10-21T13:15:53.732Z,4.45
2018-10-21T13:18:23.228Z,3.67
2018-10-21T13:20:52.644Z,3.42
2018-10-21T13:23:22.075Z,4.15
2018-10-21T13:25:51.573Z,3.60
2018-10-21T13:28:21.184Z,3.47
2018-10-21T13:30:50.583Z,4.80
2018-10-21T13:33:20.733Z,5.28
2018-10-21T13:35:50.316Z,4.58
2018-10-21T13:38:19.776Z,2.87
2018-10-21T13:40:49.205Z,4.75
2018-10-21T13:43:18.781Z,3.37
2018-10-21T13:45:48.201Z,3.62
2018-10-21T13:48:17.600Z,2.83
2018-10-21T13:50:47.037Z,3.33
2018-10-21T13:53:16.473Z,3.62
2018-10-21T13:55:46.018Z,3.22
2018-10-21T13:58:15.459Z,3.92
2018-10-21T14:00:44.914Z,3.52
2018-10-21T14:03:14.333Z,4.03
2018-10-21T14:05:43.773Z,3.60
2018-10-21T14:08:13.868Z,3.58
2018-10-21T14:10:43.501Z,2.25
2018-10-21T14:13:13.029Z,3.08
2018-10-21T14:15:42.391Z,4.28
2018-10-21T14:18:12.453Z,4.22
2018-10-21T14:20:42.543Z,4.00
2018-10-21T14:23:12.172Z,3.90
2018-10-21T14:25:41.817Z,3.47
2018-10-21T14:28:11.348Z,4.20
2018-10-21T14:30:40.826Z,2.40
2018-10-21T14:33:10.281Z,3.00
2018-10-21T14:35:39.686Z,3.17
2018-10-21T14:38:09.268Z,2.30
2018-10-21T14:40:38.656Z,4.28
2018-10-21T14:43:08.129Z,6.50
2018-10-21T14:45:37.682Z,2.52
2018-10-21T14:48:07.164Z,2.22
2018-10-21T14:50:36.508Z,3.77
2018-10-21T14:53:06.029Z,2.50
2018-10-21T14:55:35.539Z,4.92
2018-10-21T14:58:05.086Z,2.95
2018-10-21T15:00:34.805Z,2.02
2018-10-21T15:03:04.177Z,1.95
2018-10-21T15:05:33.555Z,3.65
2018-10-21T15:08:03.050Z,3.37
2018-10-21T15:10:32.505Z,3.00
2018-10-21T15:13:01.892Z,3.25
2018-10-21T15:15:31.455Z,2.75
2018-10-21T15:18:00.961Z,4.58
2018-10-21T15:20:30.523Z,3.02
2018-10-21T15:23:00.154Z,3.17
2018-10-21T15:25:30.159Z,2.98
2018-10-21T15:27:59.728Z,3.30
2018-10-21T15:30:29.193Z,1.70
2018-10-21T15:32:58.608Z,2.60
2018-10-21T15:35:28.106Z,1.45
2018-10-21T15:37:57.654Z,4.47
2018-10-21T15:40:27.128Z,2.60
2018-10-21T15:42:56.509Z,1.62
2018-10-21T15:45:25.898Z,4.35
2018-10-21T15:47:55.279Z,2.55
2018-10-21T15:50:24.852Z,1.87
2018-10-21T15:52:54.299Z,2.22
2018-10-21T15:55:23.761Z,3.67
2018-10-21T15:57:53.207Z,2.27
2018-10-21T16:00:22.780Z,4.28
2018-10-21T16:02:52.258Z,5.17
2018-10-21T16:05:22.281Z,2.83
2018-10-21T16:07:51.886Z,2.60
2018-10-21T16:10:21.342Z,4.58
2018-10-21T16:12:50.820Z,2.80
2018-10-21T16:15:20.461Z,1.77
2018-10-21T16:17:49.856Z,2.17
2018-10-21T16:20:19.326Z,5.53
2018-10-21T16:22:49.495Z,2.60
2018-10-21T16:25:19.082Z,4.97
2018-10-21T16:27:48.680Z,2.58
2018-10-21T16:30:18.163Z,2.25
2018-10-21T16:32:48.112Z,4.35
2018-10-21T16:35:17.359Z,2.52
2018-10-21T16:37:46.849Z,1.50
2018-10-21T16:40:17.233Z,2.00
2018-10-21T16:42:47.455Z,2.30
2018-10-21T16:45:17.683Z,3.97
2018-10-21T16:47:47.232Z,2.33
2018-10-21T16:50:17.403Z,2.60
2018-10-21T16:52:47.452Z,2.20
2018-10-21T16:55:17.681Z,2.27
2018-10-21T16:57:47.213Z,4.50
2018-10-21T17:00:18.181Z,2.87
2018-10-21T17:02:48.614Z,2.15
2018-10-21T17:05:18.697Z,2.22
2018-10-21T17:07:48.230Z,3.00
2018-10-21T17:10:18.716Z,2.72
2018-10-21T17:12:47.737Z,4.15
2018-10-21T17:15:17.281Z,3.58
2018-10-21T17:17:46.823Z,4.47
2018-10-21T17:20:17.001Z,3.47
2018-10-21T17:22:46.847Z,4.10
2018-10-21T17:25:17.133Z,3.02
2018-10-21T17:27:46.527Z,5.22
2018-10-21T17:30:17.453Z,4.07
2018-10-21T17:32:47.965Z,4.50
2018-10-21T17:35:17.405Z,4.03
2018-10-21T17:37:47.685Z,4.03
2018-10-21T17:40:17.300Z,3.95
2018-10-21T17:42:46.579Z,3.98
2018-10-21T17:45:16.397Z,3.90
2018-10-21T17:47:45.879Z,3.05
2018-10-21T17:50:15.837Z,2.87
2018-10-21T17:52:45.363Z,3.80
2018-10-21T17:55:15.238Z,3.30
2018-10-21T17:57:44.545Z,4.37
2018-10-21T18:00:15.430Z,3.72
2018-10-21T18:02:45.347Z,5.33
2018-10-21T18:05:15.558Z,5.05
2018-10-21T18:07:45.184Z,3.08
2018-10-21T18:10:14.810Z,3.77
2018-10-21T18:12:44.371Z,3.27
2018-10-21T18:15:14.766Z,4.73
2018-10-21T18:17:44.424Z,3.60
2018-10-21T18:20:14.520Z,3.75
2018-10-21T18:22:43.958Z,4.65
2018-10-21T18:25:13.452Z,5.25
2018-10-21T18:27:43.076Z,5.12
2018-10-21T18:30:13.525Z,3.50
2018-10-21T18:32:43.142Z,3.80
2018-10-21T18:35:14.466Z,4.58
2018-10-21T18:37:44.134Z,3.77
2018-10-21T18:40:13.820Z,3.58
2018-10-21T18:42:43.634Z,5.20
2018-10-21T18:45:14.433Z,6.50
2018-10-21T18:47:44.649Z,3.75
2018-10-21T18:50:15.478Z,5.05
2018-10-21T18:52:45.317Z,4.42
2018-10-21T18:55:15.014Z,4.45
2018-10-21T18:57:44.437Z,4.80
2018-10-21T19:00:17.659Z,4.43
2018-10-21T19:02:47.234Z,5.80
2018-10-21T19:05:16.953Z,6.37
2018-10-21T19:07:46.715Z,7.08
2018-10-21T19:10:16.648Z,6.58
2018-10-21T19:12:59.568Z,5.55
2018-10-21T19:15:15.568Z,5.83
2018-10-21T19:17:44.957Z,7.75
2018-10-21T19:20:15.803Z,5.70
2018-10-21T19:22:45.411Z,6.30
2018-10-21T19:25:16.102Z,6.80
2018-10-21T19:27:46.346Z,6.05
2018-10-21T19:30:16.277Z,6.63
2018-10-21T19:32:45.748Z,5.47
2018-10-21T19:35:16.094Z,6.00
2018-10-21T19:37:45.539Z,6.10
2018-10-21T19:40:16.718Z,4.37
2018-10-21T19:42:46.373Z,5.05
2018-10-21T19:45:16.170Z,5.07
2018-10-21T19:47:45.567Z,6.05
2018-10-21T19:50:16.136Z,6.70
2018-10-21T19:52:45.907Z,6.90
2018-10-21T19:55:15.417Z,5.95
2018-10-21T19:57:44.796Z,5.08
2018-10-21T20:00:15.589Z,5.23
2018-10-21T20:02:45.567Z,5.42
2018-10-21T20:05:15.405Z,5.53
2018-10-21T20:07:44.785Z,6.20
2018-10-21T20:10:15.390Z,6.12
2018-10-21T20:12:45.850Z,4.85
2018-10-21T20:15:15.250Z,5.50
2018-10-21T20:17:44.883Z,5.75
2018-10-21T20:20:14.282Z,6.10
2018-10-21T20:22:43.796Z,6.47
2018-10-21T20:25:14.044Z,7.20
2018-10-21T20:27:43.435Z,5.95
2018-10-21T20:30:13.878Z,6.10
2018-10-21T20:32:43.764Z,7.30
2018-10-21T20:35:13.375Z,5.83
2018-10-21T20:37:42.840Z,5.50
2018-10-21T20:40:12.497Z,5.37
2018-10-21T20:42:41.897Z,6.55
2018-10-21T20:45:12.676Z,7.13
2018-10-21T20:47:42.133Z,6.70
2018-10-21T20:50:11.570Z,6.00
2018-10-21T20:52:41.050Z,5.37
2018-10-21T20:55:10.582Z,6.62
2018-10-21T20:57:40.031Z,7.00
2018-10-21T21:00:09.478Z,6.28
2018-10-21T21:02:38.873Z,5.28
2018-10-21T21:05:09.789Z,7.03
2018-10-21T21:07:39.255Z,7.05
2018-10-21T21:10:09.551Z,6.80
2018-10-21T21:12:39.211Z,5.67
2018-10-21T21:15:09.038Z,5.80
2018-10-21T21:17:38.572Z,5.83
2018-10-21T21:20:09.026Z,7.12
2018-10-21T21:22:38.454Z,7.83
2018-10-21T21:25:07.939Z,5.95
2018-10-21T21:27:37.539Z,7.35
2018-10-21T21:30:07.895Z,5.92
2018-10-21T21:32:37.283Z,6.03
2018-10-21T21:35:08.304Z,5.47
2018-10-21T21:37:38.281Z,6.92
2018-10-21T21:40:09.588Z,5.92
2018-10-21T21:42:39.775Z,5.25
2018-10-21T21:45:09.876Z,5.55
2018-10-21T21:47:39.381Z,5.45
2018-10-21T21:50:09.192Z,6.37
2018-10-21T21:52:38.715Z,6.28
2018-10-21T21:55:08.972Z,5.83
2018-10-21T21:57:38.414Z,5.17
2018-10-21T22:00:12.478Z,6.03
2018-10-21T22:02:42.163Z,6.72
2018-10-21T22:05:11.583Z,7.15
2018-10-21T22:07:41.591Z,4.90
2018-10-21T22:10:12.980Z,6.75
2018-10-21T22:12:43.288Z,5.33
2018-10-21T22:15:13.076Z,6.07
2018-10-21T22:17:42.785Z,6.35
2018-10-21T22:20:13.333Z,5.28
2018-10-21T22:22:43.179Z,7.67
2018-10-21T22:25:13.157Z,5.90
2018-10-21T22:27:42.668Z,5.35
2018-10-21T22:30:12.493Z,6.00
2018-10-21T22:32:41.812Z,5.30
2018-10-21T22:35:11.293Z,5.62
2018-10-21T22:37:40.682Z,5.12
2018-10-21T22:40:10.276Z,6.22
2018-10-21T22:42:39.584Z,6.62
2018-10-21T22:45:10.065Z,5.50
2018-10-21T22:47:39.704Z,5.05
2018-10-21T22:50:11.259Z,5.50
2018-10-21T22:52:41.368Z,5.17
2018-10-21T22:55:10.979Z,6.85
2018-10-21T22:57:40.468Z,6.20
2018-10-21T23:00:10.788Z,5.70
2018-10-21T23:02:40.200Z,6.00
2018-10-21T23:05:10.053Z,6.55
2018-10-21T23:07:39.736Z,6.17
2018-10-21T23:10:09.154Z,6.97
2018-10-21T23:12:39.151Z,4.97
2018-10-21T23:15:08.526Z,6.28
2018-10-21T23:17:38.336Z,5.22
2018-10-21T23:20:08.520Z,4.70
2018-10-21T23:22:37.914Z,5.62
2018-10-21T23:25:07.827Z,6.00
2018-10-21T23:27:37.279Z,4.92
2018-10-21T23:30:07.694Z,4.87
2018-10-21T23:32:37.152Z,4.87
2018-10-21T23:35:07.402Z,7.42
2018-10-21T23:37:36.858Z,5.22
2018-10-21T23:40:07.543Z,7.33
2018-10-21T23:42:36.861Z,5.53
2018-10-21T23:45:06.622Z,5.95
2018-10-21T23:47:36.157Z,4.50
2018-10-21T23:50:05.976Z,4.92
2018-10-21T23:52:35.493Z,5.92
2018-10-21T23:55:04.988Z,4.95
2018-10-21T23:57:34.334Z,5.50
